createdAt,value
2023-01-19T00:01:59.387Z,99133.41
2023-01-19T00:05:04.068Z,99146.28
2023-01-19T00:08:15.432Z,99142.94
2023-01-19T00:11:18.746Z,99141.56
2023-01-19T00:14:23.177Z,99138.22
2023-01-19T00:17:26.081Z,99144.56
2023-01-19T00:20:30.648Z,99154.09
2023-01-19T00:23:33.461Z,99155.59
2023-01-19T00:26:40.538Z,99168.47
2023-01-19T00:29:44.723Z,99170.31
2023-01-19T00:32:47.545Z,99166.09
2023-01-19T00:35:52.626Z,99180.13
2023-01-19T00:38:55.549Z,99182.28
2023-01-19T00:42:15.818Z,99171.06
2023-01-19T00:45:20.979Z,99188.63
2023-01-19T00:48:23.931Z,99191.59
2023-01-19T00:51:26.797Z,99190.28
2023-01-19T00:54:29.603Z,99196.09
2023-01-19T00:57:32.384Z,99194.59
2023-01-19T01:00:36.578Z,99194.91
2023-01-19T01:03:39.409Z,99178.50
2023-01-19T01:06:42.264Z,99182.19
2023-01-19T01:09:45.068Z,99179.16
2023-01-19T01:12:56.395Z,99176.81
2023-01-19T01:16:02.364Z,99168.31
2023-01-19T01:19:05.305Z,99162.44
2023-01-19T01:22:08.392Z,99172.28
2023-01-19T01:25:11.327Z,99171.72
2023-01-19T01:28:14.209Z,99167.69
2023-01-19T01:31:18.477Z,99178.56
2023-01-19T01:34:21.373Z,99169.00
2023-01-19T01:37:24.176Z,99176.00
2023-01-19T01:40:27.033Z,99178.03
2023-01-19T01:43:42.756Z,99173.84
2023-01-19T01:46:46.962Z,99164.84
2023-01-19T01:49:50.150Z,99170.34
2023-01-19T01:53:07.260Z,99175.31
2023-01-19T01:56:13.745Z,99174.16
2023-01-19T01:59:25.853Z,99177.81
2023-01-19T02:02:48.650Z,99192.16
2023-01-19T02:05:52.113Z,99199.50
2023-01-19T02:09:13.493Z,99198.66
2023-01-19T02:12:34.016Z,99207.81
2023-01-19T02:15:36.878Z,99210.81
2023-01-19T02:18:41.554Z,99218.81
2023-01-19T02:21:48.067Z,99203.28
2023-01-19T02:24:52.797Z,99198.25
2023-01-19T02:27:55.787Z,99194.59
2023-01-19T02:30:58.726Z,99194.88
2023-01-19T02:34:02.386Z,99197.72
2023-01-19T02:37:07.979Z,99196.88
2023-01-19T02:40:15.283Z,99197.03
2023-01-19T02:43:19.083Z,99199.88
2023-01-19T02:46:22.059Z,99200.88
2023-01-19T02:49:24.977Z,99199.66
2023-01-19T02:52:28.403Z,99193.63
2023-01-19T02:55:33.352Z,99192.78
2023-01-19T02:58:41.551Z,99195.78
2023-01-19T03:01:57.555Z,99205.78
2023-01-19T03:05:05.111Z,99203.00
2023-01-19T03:08:16.229Z,99197.22
2023-01-19T03:11:20.509Z,99204.94
2023-01-19T03:14:25.949Z,99205.69
2023-01-19T03:17:31.065Z,99201.88
2023-01-19T03:20:34.188Z,99211.78
2023-01-19T03:23:39.204Z,99208.84
2023-01-19T03:26:44.993Z,99226.56
2023-01-19T03:29:51.114Z,99225.25
2023-01-19T03:32:56.708Z,99226.94
2023-01-19T03:36:03.705Z,99235.97
2023-01-19T03:39:07.871Z,99230.81
2023-01-19T03:42:14.517Z,99238.66
2023-01-19T03:45:17.676Z,99242.19
2023-01-19T03:48:21.497Z,99241.34
2023-01-19T03:51:24.383Z,99246.69
2023-01-19T03:54:27.525Z,99239.34
2023-01-19T03:57:31.753Z,99244.38
2023-01-19T04:00:36.610Z,99246.06
2023-01-19T04:03:39.687Z,99256.13
2023-01-19T04:06:42.519Z,99249.41
2023-01-19T04:09:45.396Z,99259.44
2023-01-19T04:12:49.654Z,99246.25
2023-01-19T04:15:52.532Z,99249.44
2023-01-19T04:18:55.755Z,99248.59
2023-01-19T04:21:58.570Z,99250.97
2023-01-19T04:25:01.442Z,99248.25
2023-01-19T04:28:05.816Z,99250.78
2023-01-19T04:31:08.893Z,99252.16
2023-01-19T04:34:11.727Z,99251.78
2023-01-19T04:37:14.536Z,99247.13
2023-01-19T04:40:17.493Z,99240.47
2023-01-19T04:43:22.043Z,99246.63
2023-01-19T04:46:24.904Z,99245.97
2023-01-19T04:49:27.724Z,99242.50
2023-01-19T04:52:35.084Z,99258.84
2023-01-19T04:55:38.728Z,99260.69
2023-01-19T04:58:42.894Z,99271.25
2023-01-19T05:01:45.759Z,99263.88
2023-01-19T05:04:48.649Z,99267.03
2023-01-19T05:07:51.421Z,99277.44
2023-01-19T05:10:54.186Z,99275.06
2023-01-19T05:13:58.499Z,99266.03
2023-01-19T05:17:03.281Z,99265.41
2023-01-19T05:20:06.956Z,99271.38
2023-01-19T05:23:09.741Z,99274.09
2023-01-19T05:26:12.545Z,99280.31
2023-01-19T05:29:16.992Z,99295.97
2023-01-19T05:32:19.945Z,99298.50
2023-01-19T05:35:35.297Z,99303.38
2023-01-19T05:38:38.764Z,99302.34
2023-01-19T05:41:42.130Z,99308.19
2023-01-19T05:44:46.331Z,99316.03
2023-01-19T05:47:49.259Z,99321.72
2023-01-19T05:50:52.041Z,99316.41
2023-01-19T05:53:55.287Z,99311.88
2023-01-19T05:56:58.321Z,99315.56
2023-01-19T06:00:02.516Z,99325.44
2023-01-19T06:03:06.661Z,99329.31
2023-01-19T06:06:09.544Z,99331.09
2023-01-19T06:09:12.347Z,99318.78
2023-01-19T06:12:15.199Z,99315.28
2023-01-19T06:15:19.477Z,99322.41
2023-01-19T06:18:22.370Z,99314.59
2023-01-19T06:21:25.275Z,99320.13
2023-01-19T06:24:28.173Z,99319.47
2023-01-19T06:27:31.049Z,99316.44
2023-01-19T06:30:35.369Z,99324.47
2023-01-19T06:33:38.221Z,99330.53
2023-01-19T06:36:41.047Z,99323.34
2023-01-19T06:39:45.438Z,99320.50
2023-01-19T06:42:49.562Z,99318.13
2023-01-19T06:45:53.946Z,99317.00
2023-01-19T06:48:56.777Z,99308.94
2023-01-19T06:52:03.320Z,99316.16
2023-01-19T06:55:06.582Z,99316.97
2023-01-19T06:58:09.891Z,99317.75
2023-01-19T07:01:15.337Z,99327.56
2023-01-19T07:04:18.347Z,99332.09
2023-01-19T07:07:21.250Z,99336.59
2023-01-19T07:10:24.800Z,99336.94
2023-01-19T07:13:28.654Z,99331.06
2023-01-19T07:16:32.993Z,99341.09
2023-01-19T07:19:36.126Z,99347.59
2023-01-19T07:22:39.045Z,99349.44
2023-01-19T07:25:41.957Z,99354.25
2023-01-19T07:28:46.784Z,99350.91
2023-01-19T07:31:54.534Z,99370.63
2023-01-19T07:34:57.431Z,99376.97
2023-01-19T07:38:00.198Z,99387.78
2023-01-19T07:41:03.022Z,99383.63
2023-01-19T07:44:06.020Z,99378.72
2023-01-19T07:47:12.839Z,99386.63
2023-01-19T07:50:16.278Z,99381.56
2023-01-19T07:53:19.076Z,99382.91
2023-01-19T07:56:22.515Z,99386.72
2023-01-19T07:59:25.349Z,99385.38
2023-01-19T08:02:30.262Z,99390.16
2023-01-19T08:05:33.490Z,99396.34
2023-01-19T08:08:36.368Z,99394.69
2023-01-19T08:11:39.254Z,99391.34
2023-01-19T08:14:42.042Z,99387.97
2023-01-19T08:17:59.599Z,99395.47
2023-01-19T08:21:02.505Z,99392.56
2023-01-19T08:24:05.619Z,99389.00
2023-01-19T08:27:09.937Z,99389.75
2023-01-19T08:30:13.053Z,99387.53
2023-01-19T08:33:17.418Z,99391.38
2023-01-19T08:36:20.196Z,99393.53
2023-01-19T08:39:23.876Z,99390.69
2023-01-19T08:42:27.243Z,99390.84
2023-01-19T08:45:31.086Z,99389.31
2023-01-19T08:48:35.273Z,99374.28
2023-01-19T08:51:38.224Z,99385.81
2023-01-19T08:54:43.858Z,99376.78
2023-01-19T08:57:46.671Z,99375.28
2023-01-19T09:00:52.546Z,99371.09
2023-01-19T09:03:56.810Z,99370.34
2023-01-19T09:06:59.632Z,99372.19
2023-01-19T09:10:02.459Z,99382.88
2023-01-19T09:13:06.005Z,99386.38
2023-01-19T09:16:09.883Z,99383.03
2023-01-19T09:19:14.195Z,99382.38
2023-01-19T09:22:17.053Z,99388.84
2023-01-19T09:25:19.852Z,99388.16
2023-01-19T09:28:22.757Z,99380.16
2023-01-19T09:31:25.790Z,99374.66
2023-01-19T09:34:31.298Z,99375.44
2023-01-19T09:37:34.160Z,99380.28
2023-01-19T09:40:37.584Z,99377.00
2023-01-19T09:43:42.577Z,99382.63
2023-01-19T09:46:45.452Z,99369.78
2023-01-19T09:49:53.431Z,99377.84
2023-01-19T09:53:01.337Z,99380.38
2023-01-19T09:56:04.439Z,99372.56
2023-01-19T09:59:18.311Z,99382.63
2023-01-19T10:02:27.842Z,99379.09
2023-01-19T10:05:34.671Z,99371.50
2023-01-19T10:08:41.912Z,99382.84
2023-01-19T10:11:52.767Z,99387.94
2023-01-19T10:14:59.266Z,99376.50
2023-01-19T10:18:09.793Z,99375.88
2023-01-19T10:29:29.474Z,99371.16
2023-01-19T10:32:35.972Z,99371.81
2023-01-19T10:35:38.831Z,99374.34
2023-01-19T10:38:41.642Z,99364.78
2023-01-19T10:41:45.392Z,99361.81
2023-01-19T10:44:50.772Z,99356.97
2023-01-19T10:47:54.387Z,99362.53
2023-01-19T10:51:03.144Z,99371.56
2023-01-19T10:54:06.220Z,99359.19
2023-01-19T10:57:10.794Z,99358.53
2023-01-19T11:00:30.344Z,99364.25
2023-01-19T11:03:33.304Z,99355.50
2023-01-19T11:06:36.103Z,99357.19
2023-01-19T11:09:38.890Z,99359.59
2023-01-19T11:12:42.752Z,99346.72
2023-01-19T11:15:49.468Z,99354.72
2023-01-19T11:18:53.733Z,99351.44
2023-01-19T11:22:09.704Z,99358.31
2023-01-19T11:25:21.931Z,99360.78
2023-01-19T11:28:28.140Z,99362.13
2023-01-19T11:31:34.174Z,99360.69
2023-01-19T11:34:38.674Z,99358.13
2023-01-19T11:37:42.932Z,99358.59
2023-01-19T11:40:51.627Z,99366.78
2023-01-19T11:43:55.710Z,99363.94
2023-01-19T11:47:01.238Z,99358.19
2023-01-19T11:50:07.123Z,99364.53
2023-01-19T11:53:16.328Z,99358.19
2023-01-19T11:56:23.171Z,99360.19
2023-01-19T11:59:26.103Z,99357.84
2023-01-19T12:02:32.298Z,99356.16
2023-01-19T12:05:35.871Z,99347.78
2023-01-19T12:08:41.091Z,99348.59
2023-01-19T12:11:45.700Z,99354.09
2023-01-19T12:14:51.651Z,99360.44
2023-01-19T12:17:59.020Z,99353.03
2023-01-19T12:21:04.063Z,99354.88
2023-01-19T12:24:12.668Z,99353.53
2023-01-19T12:27:19.500Z,99360.72
2023-01-19T12:30:23.527Z,99375.06
2023-01-19T12:33:37.988Z,99374.56
2023-01-19T12:36:41.855Z,99370.88
2023-01-19T12:39:49.110Z,99376.69
2023-01-19T12:42:59.018Z,99371.63
2023-01-19T12:46:01.774Z,99371.63
2023-01-19T12:49:07.576Z,99376.13
2023-01-19T12:52:22.848Z,99370.78
2023-01-19T12:55:27.999Z,99376.13
2023-01-19T12:58:31.942Z,99373.63
2023-01-19T13:01:34.741Z,99372.94
2023-01-19T13:04:39.510Z,99371.63
2023-01-19T13:08:00.182Z,99366.59
2023-01-19T13:11:26.280Z,99366.28
2023-01-19T13:14:38.599Z,99368.75
2023-01-19T13:17:50.026Z,99367.59
2023-01-19T13:20:56.068Z,99363.63
2023-01-19T13:23:59.642Z,99367.34
2023-01-19T13:27:03.651Z,99363.88
2023-01-19T13:30:11.653Z,99364.75
2023-01-19T13:33:19.404Z,99374.97
2023-01-19T13:36:29.197Z,99370.44
2023-01-19T13:39:35.578Z,99372.31
2023-01-19T13:42:39.878Z,99375.81
2023-01-19T13:45:43.033Z,99376.38
2023-01-19T13:48:53.952Z,99375.47
2023-01-19T13:52:13.653Z,99379.69
2023-01-19T13:55:16.912Z,99388.88
2023-01-19T13:58:22.252Z,99379.00
2023-01-19T14:01:28.693Z,99383.00
2023-01-19T14:04:32.544Z,99387.84
2023-01-19T14:07:36.895Z,99383.31
2023-01-19T14:10:40.883Z,99378.38
2023-01-19T14:13:45.258Z,99388.69
2023-01-19T14:16:48.259Z,99382.84
2023-01-19T14:19:51.654Z,99381.22
2023-01-19T14:22:55.868Z,99388.88
2023-01-19T14:25:58.806Z,99404.50
2023-01-19T14:29:09.478Z,99397.91
2023-01-19T14:32:16.972Z,99403.28
2023-01-19T14:35:25.438Z,99396.72
2023-01-19T14:38:29.753Z,99407.47
2023-01-19T14:41:37.167Z,99403.91
2023-01-19T14:44:40.921Z,99407.78
2023-01-19T14:47:45.016Z,99406.47
2023-01-19T14:51:02.490Z,99410.16
2023-01-19T14:54:15.959Z,99411.00
2023-01-19T14:57:18.849Z,99413.34
2023-01-19T15:00:22.023Z,99410.88
2023-01-19T15:03:31.946Z,99410.09
2023-01-19T15:06:45.998Z,99416.59
2023-01-19T15:09:50.630Z,99420.13
2023-01-19T15:12:55.516Z,99407.06
2023-01-19T15:15:58.972Z,99397.19
2023-01-19T15:19:02.068Z,99414.91
2023-01-19T15:22:10.186Z,99408.94
2023-01-19T15:25:31.659Z,99418.31
2023-01-19T15:28:34.966Z,99423.09
2023-01-19T15:31:38.064Z,99419.28
2023-01-19T15:34:41.417Z,99425.34
2023-01-19T15:37:44.318Z,99424.16
2023-01-19T15:40:51.390Z,99433.19
2023-01-19T15:43:54.426Z,99437.00
2023-01-19T15:46:58.032Z,99426.84
2023-01-19T15:50:00.920Z,99434.03
2023-01-19T15:53:03.870Z,99429.34
2023-01-19T15:56:12.957Z,99419.16
2023-01-19T15:59:15.932Z,99427.84
2023-01-19T16:02:19.046Z,99427.38
2023-01-19T16:05:26.027Z,99436.06
2023-01-19T16:08:33.605Z,99444.56
2023-01-19T16:11:38.977Z,99436.38
2023-01-19T16:14:41.916Z,99428.34
2023-01-19T16:17:44.884Z,99429.50
2023-01-19T16:20:47.710Z,99435.84
2023-01-19T16:23:50.581Z,99426.47
2023-01-19T16:26:54.820Z,99432.28
2023-01-19T16:30:00.110Z,99439.97
2023-01-19T16:33:03.239Z,99445.81
2023-01-19T16:36:18.384Z,99444.97
2023-01-19T16:39:21.883Z,99448.94
2023-01-19T16:42:26.158Z,99450.28
2023-01-19T16:45:29.139Z,99449.94
2023-01-19T16:48:32.426Z,99444.75
2023-01-19T16:51:35.152Z,99459.78
2023-01-19T16:54:39.469Z,99467.16
2023-01-19T16:57:43.823Z,99465.44
2023-01-19T17:00:46.734Z,99461.94
2023-01-19T17:03:50.053Z,99445.03
2023-01-19T17:06:53.088Z,99454.75
2023-01-19T17:09:56.361Z,99451.59
2023-01-19T17:13:00.707Z,99446.63
2023-01-19T17:16:04.404Z,99448.28
2023-01-19T17:19:08.103Z,99451.47
2023-01-19T17:35:10.715Z,99461.09
2023-01-19T17:38:13.520Z,99460.06
2023-01-19T17:41:16.758Z,99450.38
2023-01-19T17:44:19.569Z,99460.59
2023-01-19T17:47:25.578Z,99464.59
2023-01-19T17:50:30.030Z,99468.63
2023-01-19T17:53:33.041Z,99468.13
2023-01-19T17:56:38.851Z,99457.75
2023-01-19T17:59:43.857Z,99455.44
2023-01-19T18:02:49.664Z,99465.16
2023-01-19T18:05:56.901Z,99461.81
2023-01-19T18:09:00.087Z,99463.47
2023-01-19T18:12:02.924Z,99465.66
2023-01-19T18:15:06.112Z,99463.13
2023-01-19T18:18:08.864Z,99465.66
2023-01-19T18:21:14.106Z,99467.34
2023-01-19T18:24:17.321Z,99466.50
2023-01-19T18:27:21.923Z,99465.16
2023-01-19T18:30:24.820Z,99465.34
2023-01-19T18:33:28.168Z,99468.31
2023-01-19T18:36:34.279Z,99474.19
2023-01-19T18:39:37.123Z,99469.63
2023-01-19T18:42:39.988Z,99480.75
2023-01-19T18:45:42.804Z,99471.38
2023-01-19T18:48:45.683Z,99469.34
2023-01-19T18:51:49.962Z,99487.94
2023-01-19T18:54:52.743Z,99487.25
2023-01-19T18:57:55.644Z,99482.44
2023-01-19T19:00:58.920Z,99486.09
2023-01-19T19:04:02.085Z,99507.84
2023-01-19T19:07:06.499Z,99486.28
2023-01-19T19:10:10.240Z,99487.63
2023-01-19T19:13:13.277Z,99475.91
2023-01-19T19:16:16.094Z,99486.00
2023-01-19T19:19:19.371Z,99500.69
2023-01-19T19:22:25.518Z,99503.38
2023-01-19T19:25:28.534Z,99504.75
2023-01-19T19:28:31.336Z,99508.88
2023-01-19T19:31:34.268Z,99514.22
2023-01-19T19:34:37.299Z,99511.25
2023-01-19T19:37:41.482Z,99512.06
2023-01-19T19:40:44.283Z,99513.06
2023-01-19T19:43:47.129Z,99518.75
2023-01-19T19:46:50.064Z,99520.25
2023-01-19T19:49:54.718Z,99520.53
2023-01-19T19:53:05.015Z,99524.03
2023-01-19T19:56:08.730Z,99529.69
2023-01-19T19:59:11.594Z,99536.22
2023-01-19T20:02:14.454Z,99522.19
2023-01-19T20:05:17.361Z,99528.66
2023-01-19T20:08:21.610Z,99535.34
2023-01-19T20:11:25.025Z,99537.00
2023-01-19T20:14:27.879Z,99537.00
2023-01-19T20:17:30.762Z,99537.47
2023-01-19T20:20:33.887Z,99538.25
2023-01-19T20:23:40.343Z,99536.59
2023-01-19T20:26:44.319Z,99545.22
2023-01-19T20:29:51.459Z,99541.56
2023-01-19T20:32:54.543Z,99552.44
2023-01-19T20:35:57.355Z,99546.25
2023-01-19T20:39:08.397Z,99551.06
2023-01-19T20:42:13.594Z,99552.06
2023-01-19T20:45:16.472Z,99561.25
2023-01-19T20:48:19.344Z,99551.16
2023-01-19T20:51:23.119Z,99554.16
2023-01-19T20:54:30.525Z,99561.19
2023-01-19T20:57:33.684Z,99563.44
2023-01-19T21:00:36.547Z,99555.75
2023-01-19T21:03:39.561Z,99561.22
2023-01-19T21:06:42.891Z,99564.44
2023-01-19T21:09:47.076Z,99559.72
2023-01-19T21:12:49.953Z,99568.06
2023-01-19T21:15:52.791Z,99554.84
2023-01-19T21:18:55.935Z,99557.50
2023-01-19T21:21:58.837Z,99559.28
2023-01-19T21:25:03.027Z,99566.84
2023-01-19T21:28:05.958Z,99563.63
2023-01-19T21:31:10.099Z,99577.00
2023-01-19T21:34:14.117Z,99571.03
2023-01-19T21:37:16.979Z,99574.38
2023-01-19T21:40:21.509Z,99564.06
2023-01-19T21:43:24.364Z,99559.78
2023-01-19T21:46:29.353Z,99567.22
2023-01-19T21:49:32.459Z,99558.56
2023-01-19T21:52:35.339Z,99566.25
2023-01-19T21:55:39.799Z,99549.59
2023-01-19T21:58:42.661Z,99557.16
2023-01-19T22:01:46.557Z,99549.97
2023-01-19T22:04:49.612Z,99546.31
2023-01-19T22:07:52.528Z,99554.19
2023-01-19T22:10:56.706Z,99539.28
2023-01-19T22:14:01.021Z,99548.69
2023-01-19T22:17:04.888Z,99554.72
2023-01-19T22:20:08.770Z,99550.53
2023-01-19T22:23:11.603Z,99552.41
2023-01-19T22:26:15.899Z,99552.41
2023-01-19T22:29:18.706Z,99547.06
2023-01-19T22:32:21.483Z,99551.44
2023-01-19T22:35:24.367Z,99544.91
2023-01-19T22:38:27.175Z,99554.59
2023-01-19T22:41:31.992Z,99563.38
2023-01-19T22:44:34.790Z,99557.13
2023-01-19T22:47:37.590Z,99562.50
2023-01-19T22:50:40.375Z,99550.81
2023-01-19T22:53:43.249Z,99553.13
2023-01-19T22:56:47.472Z,99558.47
2023-01-19T22:59:50.298Z,99555.63
2023-01-19T23:02:53.173Z,99565.19
2023-01-19T23:05:55.975Z,99565.16
2023-01-19T23:08:59.701Z,99552.97
2023-01-19T23:12:04.009Z,99559.47
2023-01-19T23:15:07.466Z,99567.50
2023-01-19T23:18:10.285Z,99565.25
2023-01-19T23:21:14.398Z,99561.34
2023-01-19T23:24:17.235Z,99567.25
2023-01-19T23:27:21.449Z,99564.22
2023-01-19T23:30:24.333Z,99577.63
2023-01-19T23:33:27.304Z,99573.59
2023-01-19T23:36:30.947Z,99577.16
2023-01-19T23:39:33.787Z,99578.63
2023-01-19T23:42:38.013Z,99582.66
2023-01-19T23:45:40.864Z,99579.66
2023-01-19T23:48:43.740Z,99590.84
2023-01-19T23:51:46.656Z,99584.47
2023-01-19T23:54:49.452Z,99574.97
2023-01-19T23:57:53.650Z,99582.34
